Sunday, January 21, 2018, 3:43 PM EST
Back to Local

KPHD, New Philadelphia Clever Fld

Location: New Philadelphia, OH, United States Lat: 40.467
Local Time: 3:43 PM EST (20:43 GMT) Lon: -81.417
Time Zone: US/Eastern Elev: 895 ft

Show me the last for .
Show Decoded

2018-01-21 14:53 METAR KPHD 211953Z AUTO VRB04KT 10SM OVC019 09/04 A3005 RMK AO2 SLP181 T00890044
                 =
2018-01-21 13:53 METAR KPHD 211853Z AUTO 21006KT 10SM OVC021 09/04 A3006 RMK AO2 SLP184 T00940044
                 =
2018-01-21 12:53 METAR KPHD 211753Z AUTO VRB05KT 10SM OVC022 08/04 A3008 RMK AO2 SLP190 T00830044
                 10083 20033 58019 =
2018-01-21 11:53 METAR KPHD 211653Z AUTO 12005KT 10SM OVC026 06/04 A3011 RMK AO2 SLP201 T00560044
                 =
2018-01-21 10:53 METAR KPHD 211553Z AUTO 13005KT 3SM BR OVC028 04/04 A3014 RMK AO2 SLP211
                 T00440044 =
2018-01-21 10:46 METAR KPHD 211546Z AUTO 13005KT 3SM BR OVC028 05/04 A3014 RMK AO2 T00500044 =
2018-01-21 10:38 METAR KPHD 211538Z AUTO 12005KT 2 1/2SM BR OVC028 05/04 A3014 RMK AO2 T00500044
                 =
2018-01-21 10:29 METAR KPHD 211529Z AUTO 12004KT 2 1/2SM BR OVC030 04/04 A3014 RMK AO2 T00440044
                 =
2018-01-21 10:21 METAR KPHD 211521Z AUTO 12004KT 3SM BR OVC030 04/04 A3015 RMK AO2 T00440044 =
2018-01-21 10:18 METAR KPHD 211518Z AUTO 11004KT 2 1/2SM BR OVC028 05/04 A3015 RMK AO2 T00500044
                 =
2018-01-21 09:53 METAR KPHD 211453Z AUTO 13003KT 1 1/2SM BR OVC023 04/04 A3014 RMK AO2 VIS 1V2
                 SLP211 T00440044 53008 =
2018-01-21 09:46 METAR KPHD 211446Z AUTO 13004KT 1 1/4SM BR FEW008 OVC023 04/04 A3014 RMK AO2
                 T00440039 =
2018-01-21 09:36 METAR KPHD 211436Z AUTO 12003KT 2SM BR SCT008 OVC023 04/04 A3014 RMK AO2
                 T00440044 =
2018-01-21 09:23 METAR KPHD 211423Z AUTO 12004KT 2 1/2SM BR BKN008 BKN013 OVC021 04/04 A3014 RMK
                 AO2 CIG 006V011 T00440044 =
2018-01-21 09:18 METAR KPHD 211418Z AUTO 12004KT 3SM BR SCT007 OVC013 04/04 A3014 RMK AO2
                 T00440044 =
2018-01-21 09:11 METAR KPHD 211411Z AUTO 11004KT 2 1/2SM BR SCT009 OVC013 04/04 A3013 RMK AO2
                 T00440044 =
2018-01-21 08:53 METAR KPHD 211353Z AUTO 13004KT 2 1/2SM BR OVC011 04/04 A3013 RMK AO2 VIS 1
                 1/2V4 SLP207 T00440039 =
2018-01-21 08:46 METAR KPHD 211346Z AUTO 12003KT 1 3/4SM BR OVC011 04/04 A3013 RMK AO2 T00390039
                 =
2018-01-21 08:44 METAR KPHD 211344Z AUTO 13003KT 1 3/4SM BR BKN009 OVC012 04/03 A3013 RMK AO2 CIG
                 007V011 T00390033 =
2018-01-21 08:23 METAR KPHD 211323Z AUTO VRB03KT 2SM BR OVC011 04/03 A3013 RMK AO2 T00390033 =
2018-01-21 08:17 METAR KPHD 211317Z AUTO 19003KT 1SM BR OVC011 04/03 A3013 RMK AO2 T00390033 =
2018-01-21 07:53 METAR KPHD 211253Z AUTO 00000KT 1/2SM FG BKN006 OVC011 03/03 A3013 RMK AO2
                 SLP208 T00330033 =
2018-01-21 07:44 METAR KPHD 211244Z AUTO 11003KT 1/4SM FG BKN005 OVC011 03/03 A3013 RMK AO2
                 T00330033 =
2018-01-21 06:53 METAR KPHD 211153Z AUTO 12005KT 1/2SM FG OVC004 04/03 A3012 RMK AO2 SLP204
                 T00390033 10061 20033 58001 =
2018-01-21 05:53 METAR KPHD 211053Z AUTO 12003KT 3/4SM BR OVC004 03/03 A3012 RMK AO2 SLP205
                 T00330033 =
2018-01-21 05:51 METAR KPHD 211051Z AUTO 13003KT 3/4SM BR OVC004 03/03 A3012 RMK AO2 =
2018-01-21 05:44 METAR KPHD 211044Z AUTO 12003KT 1 1/2SM BR OVC004 04/04 A3012 RMK AO2 T00390039
                 =
2018-01-21 05:37 METAR KPHD 211037Z AUTO 11004KT 1SM BR OVC004 04/03 A3012 RMK AO2 T00390033 =
2018-01-21 05:28 METAR KPHD 211028Z AUTO 13004KT 1 1/4SM BR OVC005 03/03 A3012 RMK AO2 T00330033
                 =
2018-01-21 05:13 METAR KPHD 211013Z AUTO 13003KT 1SM BR OVC005 03/03 A3012 RMK AO2 T00330033 =
2018-01-21 04:53 METAR KPHD 210953Z AUTO 13004KT 2SM BR OVC005 04/03 A3012 RMK AO2 SLP204
                 T00390033 =
2018-01-21 04:46 METAR KPHD 210946Z AUTO 13004KT 2SM BR OVC005 04/03 A3012 RMK AO2 T00390033 =
2018-01-21 04:13 METAR KPHD 210913Z AUTO 13003KT 1 1/2SM BR BKN005 BKN009 OVC017 04/03 A3012 RMK
                 AO2 T00390033 =
2018-01-21 03:53 METAR KPHD 210853Z AUTO 00000KT 2 1/2SM BR OVC007 04/04 A3012 RMK AO2 SLP204
                 T00440039 50000 =
2018-01-21 03:22 METAR KPHD 210822Z AUTO 21005KT 8SM OVC009 06/03 A3013 RMK AO2 CIG 008V012
                 T00560033 =
2018-01-21 02:53 METAR KPHD 210753Z AUTO 21004KT 10SM BKN013 BKN026 OVC033 06/02 A3012 RMK AO2
                 SLP206 T00560022 =
2018-01-21 01:53 METAR KPHD 210653Z AUTO 21004KT 10SM OVC014 06/02 A3011 RMK AO2 SLP202 T00610017
                 =
2018-01-21 00:53 METAR KPHD 210553Z AUTO VRB04KT 10SM OVC021 06/00 A3012 RMK AO2 SLP204 T00610000
                 10067 20044 50004 =
2018-01-20 23:53 METAR KPHD 210453Z AUTO 00000KT 10SM OVC025 07/M01 A3012 RMK AO2 SLP204
                 T00671006 400720006 =
2018-01-20 22:53 METAR KPHD 210353Z AUTO 22003KT 10SM OVC024 07/00 A3011 RMK AO2 SLP202 T00670000
                 =
2018-01-20 21:53 METAR KPHD 210253Z AUTO 23007KT 10SM OVC025 06/00 A3010 RMK AO2 SLP200 T00610000
                 52004 =
2018-01-20 21:29 METAR KPHD 210229Z AUTO VRB04KT 10SM BKN026 06/00 A3010 RMK AO2 T00560000 =
2018-01-20 21:06 METAR KPHD 210206Z AUTO 23004KT 10SM FEW026 05/M01 A3010 RMK AO2 T00501006 =
2018-01-20 20:53 METAR KPHD 210153Z AUTO 23004KT 10SM BKN026 06/M01 A3010 RMK AO2 SLP200
                 T00561006 =
2018-01-20 19:53 METAR KPHD 210053Z AUTO VRB04KT 10SM CLR 05/M02 A3009 RMK AO2 SLP197 T00501022 =
2018-01-20 18:53 METAR KPHD 202353Z AUTO 00000KT 10SM CLR 05/M03 A3009 RMK AO2 SLP197 T00501028
                 10072 20050 52013 =
2018-01-20 17:53 METAR KPHD 202253Z AUTO 20003KT 10SM CLR 06/M03 A3007 RMK AO2 SLP191 T00561028 =
2018-01-20 16:53 METAR KPHD 202153Z AUTO 24007KT 200V260 10SM CLR 07/M02 A3007 RMK AO2 SLP188
                 T00671022 =
2018-01-20 15:53 METAR KPHD 202053Z AUTO 24007KT 190V270 10SM CLR 07/M03 A3005 RMK AO2 SLP182
                 T00671028 53005 =

Support USWX by starting your Amazon purchase here.